• Join FlightAware (Why Join?)
  • Login
  • US Flag 
12:14AM EDT


 

Airport Tracker/Info


-or-


 

Live Flight TrackerFlight Track Log ✈ UAL6148 ✈ 26-Apr-2013 ✈ KORD - KLNK

Flight Track Log - Related Links

Times and Time Zones

All times are in EDT time to prevent confusion due to time zone crossing. See the UAL6148 flight status page for this flight to view local times or setup timezone preferences in your user account.

Time Position Orientation Groundspeed Altitude Reporting Facility
EDT Latitude Longitude Course Direction KTS MPH feet Rate Location/Type
06:44PM 41.9667 -87.9500 228° Southwest 170 196 2,900  Level Chicago TRACON
06:45PM 41.9333 -88.0000 228° Southwest 197 227 5,700 2,580 Climbing Chicago TRACON
06:47PM 41.9428 -88.1489 275° West 246 283 10,200 2,220 Climbing Chicago Center
06:48PM 41.9406 -88.2489 268° West 262 302 12,300 2,400 Climbing Chicago Center
06:49PM 41.9339 -88.3808 266° West 292 336 15,300 2,640 Climbing Chicago Center
06:50PM 41.9278 -88.4925 266° West 301 346 17,900 1,740 Climbing Chicago Center
06:51PM 41.9208 -88.6067 265° West 307 353 18,900 900 Climbing Chicago Center
06:52PM 41.9147 -88.7375 266° West 344 396 19,800 1,140 Climbing Chicago Center
06:53PM 41.9081 -88.8736 266° West 365 420 21,300 1,560 Climbing Chicago Center
06:54PM 41.9011 -89.0386 267° West 371 427 23,100 1,620 Climbing Chicago Center
06:55PM 41.8936 -89.1747 266° West 369 425 24,700 1,680 Climbing Chicago Center
06:56PM 41.8794 -89.3086 262° West 364 419 26,600 1,740 Climbing Chicago Center
06:57PM 41.8664 -89.4353 262° West 349 402 28,400 1,980 Climbing Chicago Center
06:58PM 41.8519 -89.5789 262° West 330 380 30,700 1,800 Climbing Chicago Center
06:59PM 41.8383 -89.6967 261° West 323 372 32,200 1,380 Climbing Chicago Center
07:00PM 41.8264 -89.8142 262° West 320 368 33,600 840 Climbing Chicago Center
07:01PM 41.8139 -89.9311 262° West 331 381 34,000 180 Climbing Chicago Center
07:02PM 41.8017 -90.0589 263° West 347 399 34,000  Level Chicago Center
07:03PM 41.7814 -90.2239 261° West 371 427 34,000  Level Chicago Center
07:04PM 41.7644 -90.3711 261° West 392 451 34,000  Level Chicago Center
07:05PM 41.7489 -90.5081 261° West 383 441 34,000  Level Chicago Center
07:06PM 41.7325 -90.6433 261° West 375 432 34,000  Level Chicago Center
07:08PM 41.7175 -90.7789 262° West 372 428 34,000  Level Chicago Center
07:09PM 41.6981 -90.9417 261° West 369 425 34,000  Level Chicago Center
07:10PM 41.6836 -91.0756 262° West 368 423 34,000  Level Chicago Center
07:11PM 41.6672 -91.2097 261° West 367 422 34,000  Level Chicago Center
07:12PM 41.6497 -91.3500 261° West 377 434 34,000  Level Chicago Center
07:13PM 41.6328 -91.4817 260° West 369 425 34,000  Level Chicago Center
07:14PM 41.6161 -91.6167 261° West 369 425 34,000  Level Chicago Center
07:15PM 41.5958 -91.7806 261° West 372 428 34,000  Level Chicago Center
07:16PM 41.5789 -91.9142 260° West 369 425 34,000  Level Chicago Center
07:17PM 41.5608 -92.0528 260° West 377 434 34,000  Level Chicago Center
07:18PM 41.5436 -92.1864 260° West 372 428 34,000  Level Chicago Center
07:19PM 41.5264 -92.3233 261° West 374 430 34,000  Level Chicago Center
07:20PM 41.5031 -92.4894 259° West 380 437 34,000  Level Chicago Center
07:21PM 41.4850 -92.6253 260° West 381 438 34,000  Level Chicago Center
07:21PM 41.4736 -92.7089 260° West 380 437 34,000  Level Minneapolis Center
07:23PM 41.4556 -92.8467 260° West 381 438 34,000  Level Minneapolis Center
07:24PM 41.4364 -92.9858 260° West 384 442 34,000  Level Minneapolis Center
07:25PM 41.4169 -93.1253 260° West 386 444 34,000  Level Minneapolis Center
07:26PM 41.3942 -93.2919 260° West 387 445 34,000  Level Minneapolis Center
07:27PM 41.3739 -93.4322 259° West 389 448 34,000  Level Minneapolis Center
07:28PM 41.3539 -93.5714 259° West 387 445 34,000  Level Minneapolis Center
07:29PM 41.3353 -93.7111 260° West 388 447 34,000  Level Minneapolis Center
07:30PM 41.3106 -93.8817 259° West 392 451 34,000  Level Minneapolis Center
07:31PM 41.2850 -94.0508 259° West 393 452 34,000  Level Minneapolis Center
07:32PM 41.2642 -94.1911 259° West 392 451 34,000  Level Minneapolis Center
07:33PM 41.2403 -94.3511 259° West 395 455 34,000  Level Minneapolis Center
07:34PM 41.2192 -94.4933 259° West 393 452 34,000 -780 Level Minneapolis Center
07:35PM 41.1969 -94.6389 259° West 399 459 32,500 -1,800 Descending Minneapolis Center
07:36PM 41.1744 -94.7847 258° West 402 463 30,400 -2,040 Descending Minneapolis Center
07:37PM 41.1514 -94.9328 258° West 406 467 28,300 -1,860 Descending Minneapolis Center
07:38PM 41.1328 -95.0542 259° West 413 475 26,600 -2,100 Descending Minneapolis Center
07:39PM 41.1022 -95.2450 258° West 431 496 24,000 -2,640 Descending Minneapolis Center
07:40PM 41.0819 -95.4075 261° West 422 486 21,600 -2,700 Descending Minneapolis Center
07:41PM 41.0642 -95.5119 257° West 416 479 19,800 -2,340 Descending Minneapolis Center
07:41PM 41.0489 -95.5764 253° West 418 481 18,900 -2,220 Descending Minneapolis Center
07:42PM 41.0397 -95.6450 260° West 407 468 17,800 -2,040 Descending Minneapolis Center
07:42PM 41.0250 -95.7219 256° West 409 471 16,800 -2,100 Descending Minneapolis Center
07:43PM 41.0125 -95.7975 258° West 384 442 15,500 -2,340 Descending Minneapolis Center
07:43PM 41.0017 -95.8592 257° West 387 445 14,400 -2,220 Descending Minneapolis Center
07:44PM 40.9914 -95.9214 258° West 372 428 13,500 -1,980 Descending Minneapolis Center
07:44PM 40.9806 -95.9936 259° West 375 432 12,400 -1,920 Descending Minneapolis Center
07:45PM 40.9739 -96.0697 263° West 351 404 11,400 -1,560 Descending Minneapolis Center
07:45PM 40.9714 -96.1214 266° West 354 407 10,800 -1,320 Descending Minneapolis Center
07:46PM 40.9625 -96.1842 259° West 302 348 10,100 -1,200 Descending Minneapolis Center
07:47PM 40.9642 -96.2289 273° West 308 354 9,600 -1,380 Descending Minneapolis Center
07:47PM 40.9542 -96.2817 256° West 274 315 8,700 -1,860 Descending Minneapolis Center
07:48PM 40.9547 -96.3478 271° West 278 320 7,700 -1,680 Descending Minneapolis Center
07:48PM 40.9458 -96.3847 252° West 265 305 7,000 -1,800 Descending Minneapolis Center
07:49PM 40.9469 -96.4444 271° West 270 311 5,900 -1,800 Descending Minneapolis Center
07:49PM 40.9372 -96.4822 251° West 263 303 5,200 -1,680 Descending Minneapolis Center
07:50PM 40.9397 -96.5414 273° West 267 307 4,200 -1,620 Descending Minneapolis Center
07:50PM 40.9283 -96.5742 245° Southwest 258 297 3,600 -1,200 Descending Minneapolis Center
07:51PM 40.9325 -96.6328 275° West 260 299 3,000 -360 Descending Minneapolis Center
07:52PM 40.9350 -96.7092 273° West 231 266 3,000 -300 Level Minneapolis Center
07:53PM 40.9258 -96.7694 259° West 196 226 2,500 -660 Descending Minneapolis Center
07:53PM 40.8964 -96.7758 189° South 139 160 2,200 -600 Descending Minneapolis Center
07:54PM 40.8914 -96.7944 250° West 157 181 1,900 -420 Descending Minneapolis Center